Prairie Hill, Texas
Current Conditions -  °F | °C
As of 11:35 AM on Wednesday 26 Nov 2014 (Local Time) from KLXY Reporting Station
Clear Clear  
Wind Chill: 16°   Ceiling: Unl
Heat Index: 16°   Visibility: 10mi
Dew Point:   Wind: 9mph
Humidity: 34%   Direction: 280°W
Pressure: 30.19"   Gusts: 20mph
Location:  31.66°N, 96.79°W
Report Text: KLXY 261735Z AUTO 28008G17KT 10SM CLR 16/00 A3019 RMK AO2 T01571004
Loading
Personal Weather Stations






























Interactive Weather Map New forecast layout! Learn more

10-Day Weather Forecast

Advertisements
Track Severe Weather on mobile